Time;durP1;ratioP1;P1;durP2;ratioP2;P2;SDS_P1;SDS_P2;PMS_P1;PMS_P2;Temp;Humidity;BMP_temperature;BMP_pressure;BME280_temperature;BME280_humidity;BME280_pressure;Samples;Min_cycle;Max_cycle;Signal;HPM_P1;HPM_P2
2023/01/10 00:01:31;;;;;;;23.57;11.50;;;6.00;99.90;;;;;;4995586;28;20612;-66
2023/01/10 00:03:56;;;;;;;22.57;11.77;;;6.00;99.90;;;;;;4994645;28;20703;-66
2023/01/10 00:06:22;;;;;;;19.23;11.70;;;6.00;99.90;;;;;;4997055;28;20201;-69
2023/01/10 00:08:48;;;;;;;25.17;12.20;;;6.00;99.90;;;;;;4995748;28;20181;-69
2023/01/10 00:13:58;;;;;;;24.00;11.90;;;6.00;99.90;;;;;;4996089;28;20203;-69
2023/01/10 00:16:24;;;;;;;28.27;12.93;;;6.00;99.90;;;;;;4994481;28;20180;-69
2023/01/10 00:18:49;;;;;;;22.73;12.77;;;6.00;99.90;;;;;;4996079;28;20353;-69
2023/01/10 00:21:15;;;;;;;23.97;12.50;;;6.00;99.90;;;;;;5010484;28;20200;-69
2023/01/10 00:23:43;;;;;;;23.17;12.87;;;6.00;99.90;;;;;;4995477;28;20187;-69
2023/01/10 00:26:09;;;;;;;22.47;12.80;;;6.00;99.90;;;;;;4995358;28;20172;-69
2023/01/10 00:28:38;;;;;;;26.77;12.80;;;6.00;99.90;;;;;;4995321;28;20712;-69
2023/01/10 00:31:08;;;;;;;21.57;12.53;;;6.10;99.90;;;;;;4993932;28;20212;-69
2023/01/10 00:33:35;;;;;;;19.30;12.00;;;6.10;99.90;;;;;;4994998;28;20560;-69
2023/01/10 00:36:03;;;;;;;21.30;12.80;;;6.10;99.90;;;;;;5010329;28;20177;-69
2023/01/10 00:38:32;;;;;;;24.67;13.37;;;6.10;99.90;;;;;;5010493;28;20212;-69
2023/01/10 00:40:58;;;;;;;17.87;11.80;;;6.10;99.90;;;;;;4993632;28;20196;-69
2023/01/10 00:46:09;;;;;;;24.90;12.83;;;6.10;99.90;;;;;;4995776;28;20167;-69
2023/01/10 00:48:35;;;;;;;19.17;12.57;;;6.10;99.90;;;;;;4993745;28;20203;-69
2023/01/10 00:51:01;;;;;;;18.43;12.40;;;6.10;99.90;;;;;;4993817;28;20701;-68
2023/01/10 00:53:26;;;;;;;25.43;12.87;;;6.10;99.90;;;;;;4994695;28;20196;-69
2023/01/10 00:55:53;;;;;;;20.30;12.73;;;6.10;99.90;;;;;;5009801;28;20314;-69
2023/01/10 00:58:19;;;;;;;26.73;12.87;;;6.10;99.90;;;;;;4993648;28;20176;-69
2023/01/10 01:00:45;;;;;;;20.10;12.97;;;6.10;99.90;;;;;;4993475;28;20207;-69
2023/01/10 01:03:12;;;;;;;19.37;12.13;;;6.10;99.90;;;;;;4993548;28;20177;-69
2023/01/10 01:05:45;;;;;;;22.20;11.87;;;6.10;99.90;;;;;;4994882;28;20239;-69
2023/01/10 01:08:12;;;;;;;29.03;12.60;;;6.10;99.90;;;;;;4993541;28;20211;-69
2023/01/10 01:10:38;;;;;;;19.50;13.03;;;6.10;99.90;;;;;;4994484;28;20569;-69
2023/01/10 01:13:11;;;;;;;22.60;11.23;;;6.10;99.90;;;;;;4994953;28;20173;-69
2023/01/10 01:15:37;;;;;;;25.53;11.23;;;6.10;99.90;;;;;;4993340;28;20590;-69
2023/01/10 01:18:04;;;;;;;23.77;11.57;;;6.10;99.90;;;;;;4994756;28;20173;-69
2023/01/10 01:20:30;;;;;;;21.40;10.43;;;6.10;99.90;;;;;;4994762;28;20282;-69
2023/01/10 01:22:56;;;;;;;17.97;10.97;;;6.10;99.90;;;;;;4994712;28;20214;-69
2023/01/10 01:25:22;;;;;;;22.40;11.03;;;6.10;99.90;;;;;;4994548;28;20176;-69
2023/01/10 01:27:47;;;;;;;25.00;11.30;;;6.10;99.90;;;;;;4993299;28;20543;-69
2023/01/10 01:30:14;;;;;;;27.27;10.40;;;6.10;99.90;;;;;;4994719;28;20176;-68
2023/01/10 01:32:40;;;;;;;19.03;10.00;;;6.10;99.90;;;;;;4993135;28;20230;-69
2023/01/10 01:35:07;;;;;;;17.87;10.67;;;6.10;99.90;;;;;;4994171;28;20260;-68
2023/01/10 01:37:33;;;;;;;21.27;10.27;;;6.10;99.90;;;;;;4993968;28;20544;-67
2023/01/10 01:39:58;;;;;;;17.20;10.10;;;6.10;99.90;;;;;;4993981;28;20173;-68
2023/01/10 01:42:28;;;;;;;17.23;9.13;;;6.10;99.90;;;;;;4994135;28;20549;-66
2023/01/10 01:45:12;;;;;;;20.43;9.43;;;6.10;99.90;;;;;;4994980;28;20208;-66
2023/01/10 01:47:41;;;;;;;21.03;9.57;;;6.10;99.90;;;;;;4998133;28;20195;-66
2023/01/10 01:50:25;;;;;;;15.47;9.57;;;6.10;99.90;;;;;;4998331;28;20215;-65
2023/01/10 01:52:54;;;;;;;19.83;8.93;;;6.10;99.90;;;;;;4997908;28;20644;-66
2023/01/10 01:55:21;;;;;;;17.97;9.50;;;6.00;99.90;;;;;;5013062;28;20207;-68
2023/01/10 01:57:49;;;;;;;16.77;9.20;;;6.00;99.90;;;;;;4998543;28;20176;-66
2023/01/10 02:00:15;;;;;;;21.63;9.20;;;6.00;99.90;;;;;;4998208;28;20240;-69
2023/01/10 02:02:49;;;;;;;16.73;8.33;;;6.00;99.90;;;;;;4998165;28;20188;-69
2023/01/10 02:05:17;;;;;;;15.07;8.90;;;6.00;99.90;;;;;;4996959;28;20262;-69
2023/01/10 02:07:48;;;;;;;14.80;8.43;;;6.00;99.90;;;;;;4996836;28;20184;-69
2023/01/10 02:10:27;;;;;;;16.83;8.43;;;6.00;99.90;;;;;;4998156;28;20167;-69
2023/01/10 02:12:56;;;;;;;16.97;8.50;;;6.00;99.90;;;;;;4998920;28;20168;-69
2023/01/10 02:15:22;;;;;;;18.47;8.20;;;6.00;99.90;;;;;;4998343;28;20201;-69
2023/01/10 02:17:50;;;;;;;12.93;8.00;;;6.00;99.90;;;;;;5014275;28;20211;-69
2023/01/10 02:20:19;;;;;;;15.60;7.57;;;6.00;99.90;;;;;;4998669;28;20777;-68
2023/01/10 02:22:57;;;;;;;14.97;8.07;;;6.00;99.90;;;;;;5013357;28;20200;-69
2023/01/10 02:26:13;;;;;;;18.17;7.40;;;6.10;99.90;;;;;;5013100;28;20173;-69
2023/01/10 02:29:12;;;;;;;12.20;7.90;;;6.00;99.90;;;;;;4964720;28;20188;-68
2023/01/10 02:31:53;;;;;;;17.50;8.30;;;6.00;99.90;;;;;;4997785;28;20580;-68
2023/01/10 02:34:26;;;;;;;19.87;8.40;;;6.00;99.90;;;;;;5012825;28;20592;-69
2023/01/10 02:36:58;;;;;;;18.00;8.43;;;6.00;99.90;;;;;;4996689;28;20180;-69
2023/01/10 02:39:56;;;;;;;17.60;8.33;;;6.00;99.90;;;;;;5012502;28;20173;-69
2023/01/10 02:42:50;;;;;;;17.33;7.60;;;6.00;99.90;;;;;;4991842;28;20201;-69
2023/01/10 02:45:28;;;;;;;15.20;8.37;;;6.00;99.90;;;;;;4997264;28;20172;-69
2023/01/10 02:47:55;;;;;;;20.43;8.10;;;6.10;99.90;;;;;;4997558;28;20164;-68
2023/01/10 02:50:46;;;;;;;24.10;8.70;;;6.00;99.90;;;;;;4997291;28;20204;-68
2023/01/10 02:53:44;;;;;;;18.77;7.43;;;6.00;99.90;;;;;;5012245;28;20207;-69
2023/01/10 02:56:15;;;;;;;19.40;8.40;;;6.00;99.90;;;;;;4984507;28;20185;-69
2023/01/10 02:58:44;;;;;;;13.17;7.50;;;6.00;99.90;;;;;;4997100;28;20165;-69
2023/01/10 03:01:22;;;;;;;15.63;7.87;;;6.00;99.90;;;;;;5012178;28;20205;-69
2023/01/10 03:03:56;;;;;;;15.83;7.30;;;5.90;99.90;;;;;;4997145;28;20558;-69
2023/01/10 03:06:44;;;;;;;8.80;7.10;;;5.80;99.90;;;;;;4995877;28;20172;-69
2023/01/10 03:09:57;;;;;;;15.23;7.83;;;5.80;99.90;;;;;;4997331;28;20226;-69
2023/01/10 03:12:31;;;;;;;12.50;7.93;;;5.70;99.90;;;;;;4982624;28;20219;-67
2023/01/10 03:14:58;;;;;;;20.73;6.93;;;5.70;99.90;;;;;;4997274;28;20299;-67
2023/01/10 03:17:26;;;;;;;19.90;7.70;;;5.70;99.90;;;;;;4996972;28;20667;-67
2023/01/10 03:19:58;;;;;;;18.97;7.80;;;5.70;99.90;;;;;;4996579;28;20219;-67
2023/01/10 03:22:25;;;;;;;17.63;6.60;;;5.70;99.90;;;;;;4996394;28;20208;-67
2023/01/10 03:24:54;;;;;;;11.13;6.07;;;5.60;99.90;;;;;;4996616;28;20227;-67
2023/01/10 03:27:37;;;;;;;18.77;7.07;;;5.60;99.90;;;;;;4996480;28;20181;-68
2023/01/10 03:30:30;;;;;;;12.37;6.40;;;5.60;99.90;;;;;;4996428;28;20188;-67
2023/01/10 03:32:58;;;;;;;13.27;7.03;;;5.50;99.90;;;;;;4995092;28;20165;-68
2023/01/10 03:35:44;;;;;;;13.07;7.70;;;5.50;99.90;;;;;;4996261;28;20188;-67
2023/01/10 03:38:20;;;;;;;9.70;6.57;;;5.40;99.90;;;;;;4985850;28;20192;-67
2023/01/10 03:41:04;;;;;;;12.13;6.80;;;5.30;99.90;;;;;;4996077;28;20188;-67
2023/01/10 03:46:35;;;;;;;14.87;7.80;;;5.30;99.90;;;;;;4996405;28;20172;-67
2023/01/10 03:49:03;;;;;;;20.00;7.30;;;5.30;99.90;;;;;;5011245;28;20633;-67
2023/01/10 03:51:30;;;;;;;17.50;7.93;;;5.20;99.90;;;;;;5011063;28;20670;-67
2023/01/10 03:53:59;;;;;;;14.10;7.27;;;5.20;99.90;;;;;;4995930;28;20192;-67
2023/01/10 03:56:25;;;;;;;17.77;7.17;;;5.20;99.90;;;;;;4995754;28;20169;-67
2023/01/10 03:58:51;;;;;;;10.53;7.23;;;5.20;99.90;;;;;;4995870;28;20171;-67
2023/01/10 04:01:18;;;;;;;13.50;7.50;;;5.30;99.90;;;;;;4994263;28;20204;-67
2023/01/10 04:03:43;;;;;;;22.53;7.40;;;5.30;99.90;;;;;;4995601;28;20181;-68
2023/01/10 04:06:09;;;;;;;18.50;8.27;;;5.30;99.90;;;;;;4995798;28;20195;-67
2023/01/10 04:08:35;;;;;;;17.67;7.33;;;5.30;99.90;;;;;;4993652;28;20615;-67
2023/01/10 04:11:01;;;;;;;20.03;8.83;;;5.40;99.90;;;;;;4995654;28;20299;-67
2023/01/10 04:13:27;;;;;;;16.17;8.57;;;5.40;99.90;;;;;;4994207;28;20200;-67
2023/01/10 04:15:52;;;;;;;20.33;8.23;;;5.40;99.90;;;;;;4994044;28;20180;-67
2023/01/10 04:18:18;;;;;;;19.17;8.27;;;5.40;99.90;;;;;;4994095;28;20173;-67
2023/01/10 04:20:44;;;;;;;18.90;9.50;;;5.40;99.90;;;;;;4995350;28;20199;-67
2023/01/10 04:23:10;;;;;;;14.40;9.30;;;5.40;99.90;;;;;;4994238;28;20185;-67
2023/01/10 04:25:35;;;;;;;20.07;9.00;;;5.40;99.90;;;;;;4995315;28;20176;-67
2023/01/10 04:28:01;;;;;;;16.13;8.10;;;5.40;99.90;;;;;;4994002;28;20172;-67
2023/01/10 04:30:27;;;;;;;16.70;9.23;;;5.40;99.90;;;;;;4994981;28;20212;-67
2023/01/10 04:32:53;;;;;;;19.23;9.43;;;5.40;99.90;;;;;;4995237;28;20181;-67
2023/01/10 04:35:18;;;;;;;17.10;9.63;;;5.30;99.90;;;;;;5010046;28;20204;-67
2023/01/10 04:37:44;;;;;;;26.40;10.50;;;5.40;99.90;;;;;;4993638;28;20182;-67
2023/01/10 04:40:10;;;;;;;19.20;9.43;;;5.40;99.90;;;;;;4995047;28;20176;-67
2023/01/10 04:42:36;;;;;;;22.87;9.63;;;5.40;99.90;;;;;;4994717;28;20200;-67
2023/01/10 04:45:02;;;;;;;15.43;9.67;;;5.40;99.90;;;;;;4995055;28;20536;-67
2023/01/10 04:47:28;;;;;;;15.70;8.43;;;5.40;99.90;;;;;;4994896;28;20651;-67
2023/01/10 04:49:53;;;;;;;16.20;8.87;;;5.40;99.90;;;;;;4995140;28;20169;-68
2023/01/10 04:52:19;;;;;;;15.93;9.67;;;5.40;99.90;;;;;;4994774;28;20200;-65
2023/01/10 04:54:45;;;;;;;16.17;8.73;;;5.40;99.90;;;;;;4994480;28;20235;-65
2023/01/10 04:57:11;;;;;;;14.53;8.77;;;5.40;99.90;;;;;;5009689;28;20177;-66
2023/01/10 04:59:36;;;;;;;18.40;9.13;;;5.40;99.90;;;;;;5009635;28;20180;-65
2023/01/10 05:02:02;;;;;;;15.30;8.50;;;5.40;99.90;;;;;;4994405;28;20642;-65
2023/01/10 05:04:28;;;;;;;16.23;8.37;;;5.30;99.90;;;;;;5009557;28;20184;-65
2023/01/10 05:06:55;;;;;;;12.97;8.10;;;5.30;99.90;;;;;;4993296;28;20208;-65
2023/01/10 05:09:20;;;;;;;14.40;8.07;;;5.30;99.90;;;;;;4994467;28;20255;-65
2023/01/10 05:11:46;;;;;;;21.33;7.97;;;5.30;99.90;;;;;;4994579;28;20577;-66
2023/01/10 05:14:12;;;;;;;17.53;8.47;;;5.30;99.90;;;;;;4994877;28;20204;-66
2023/01/10 05:16:38;;;;;;;10.83;8.37;;;5.30;99.90;;;;;;5009486;28;20180;-67
2023/01/10 05:19:03;;;;;;;16.43;8.63;;;5.30;99.90;;;;;;4994465;28;20184;-69
2023/01/10 05:21:29;;;;;;;16.10;8.30;;;5.30;99.90;;;;;;4994493;28;20615;-67
2023/01/10 05:23:55;;;;;;;17.80;8.13;;;5.40;99.90;;;;;;4994709;28;20176;-67
2023/01/10 05:26:22;;;;;;;17.37;8.43;;;5.40;99.90;;;;;;4994215;28;20189;-67
2023/01/10 05:28:48;;;;;;;16.63;7.47;;;5.40;99.90;;;;;;4994520;28;20591;-66
2023/01/10 05:31:16;;;;;;;17.97;8.93;;;5.40;99.90;;;;;;5009134;28;20208;-65
2023/01/10 05:33:47;;;;;;;21.77;7.87;;;5.40;99.90;;;;;;4994270;28;20211;-66
2023/01/10 05:36:13;;;;;;;11.80;7.23;;;5.50;99.90;;;;;;4994153;28;20188;-67
2023/01/10 05:38:38;;;;;;;11.10;7.73;;;5.50;99.90;;;;;;4994327;28;20254;-67
2023/01/10 05:41:04;;;;;;;13.80;8.33;;;5.50;99.90;;;;;;4994487;28;20209;-69
2023/01/10 05:43:30;;;;;;;13.03;7.50;;;5.50;99.90;;;;;;4994293;28;20280;-68
2023/01/10 05:45:56;;;;;;;11.00;7.53;;;5.50;99.90;;;;;;4993277;28;20192;-69
2023/01/10 05:48:22;;;;;;;16.07;8.03;;;5.50;99.90;;;;;;4994333;28;20267;-68
2023/01/10 05:50:51;;;;;;;17.70;8.33;;;5.50;99.90;;;;;;4994688;28;20606;-68
2023/01/10 05:53:19;;;;;;;18.17;7.93;;;5.50;99.90;;;;;;4992939;28;20216;-69
2023/01/10 05:55:53;;;;;;;19.70;8.07;;;5.50;99.90;;;;;;4992572;28;20231;-69
2023/01/10 05:58:19;;;;;;;20.07;9.60;;;5.50;99.90;;;;;;4992937;28;20174;-69
2023/01/10 06:00:44;;;;;;;22.77;8.63;;;5.50;99.90;;;;;;4994048;28;20196;-69
2023/01/10 06:03:10;;;;;;;18.10;8.57;;;5.50;99.90;;;;;;4993046;28;20185;-69
2023/01/10 06:05:36;;;;;;;14.07;8.00;;;5.40;99.90;;;;;;4994211;28;20180;-69
2023/01/10 06:08:02;;;;;;;14.17;8.40;;;5.40;99.90;;;;;;4994416;28;20173;-69
2023/01/10 06:10:27;;;;;;;17.97;8.33;;;5.40;99.90;;;;;;4993886;28;20168;-70
2023/01/10 06:12:53;;;;;;;16.30;9.23;;;5.50;99.90;;;;;;4994252;28;20208;-69
2023/01/10 06:15:19;;;;;;;17.70;9.27;;;5.40;99.90;;;;;;4994003;28;20192;-68
2023/01/10 06:17:45;;;;;;;18.87;8.87;;;5.50;99.90;;;;;;4994090;28;20172;-68
2023/01/10 06:20:12;;;;;;;17.67;8.93;;;5.50;99.90;;;;;;4993686;28;20176;-68
2023/01/10 06:22:41;;;;;;;24.97;9.40;;;5.50;99.90;;;;;;4994474;28;20196;-69
2023/01/10 06:25:09;;;;;;;20.60;9.10;;;5.50;99.90;;;;;;4992704;28;20185;-69
2023/01/10 06:27:37;;;;;;;24.90;9.43;;;5.50;99.90;;;;;;4994315;28;20177;-69
2023/01/10 06:30:03;;;;;;;22.23;9.03;;;5.50;99.90;;;;;;4993948;28;20187;-69
2023/01/10 06:32:29;;;;;;;12.67;7.87;;;5.50;99.90;;;;;;4997160;28;20192;-69
2023/01/10 06:34:55;;;;;;;21.00;9.07;;;5.50;99.90;;;;;;4997831;28;20200;-69
2023/01/10 06:37:21;;;;;;;15.73;8.37;;;5.50;99.90;;;;;;4997730;28;20688;-69
2023/01/10 06:39:47;;;;;;;21.87;8.43;;;5.50;99.90;;;;;;4997915;28;20203;-68
2023/01/10 06:42:13;;;;;;;17.43;9.00;;;5.60;99.90;;;;;;4997355;28;20563;-69
2023/01/10 06:44:38;;;;;;;23.47;9.73;;;5.50;99.90;;;;;;5012541;28;20208;-69
2023/01/10 06:47:04;;;;;;;15.30;9.07;;;5.60;99.90;;;;;;5012488;28;20184;-68
2023/01/10 06:49:30;;;;;;;20.60;9.73;;;5.60;99.90;;;;;;4996190;28;20182;-68
2023/01/10 06:51:55;;;;;;;22.73;9.80;;;5.60;99.90;;;;;;4997632;28;20207;-68
2023/01/10 06:54:21;;;;;;;24.67;9.83;;;5.60;99.90;;;;;;4997485;28;20203;-68
2023/01/10 06:56:47;;;;;;;17.63;8.87;;;5.60;99.90;;;;;;4997262;28;20626;-68
2023/01/10 06:59:13;;;;;;;25.77;10.33;;;5.60;99.90;;;;;;5012464;28;20251;-68
2023/01/10 07:01:39;;;;;;;24.57;10.20;;;5.60;99.90;;;;;;4996665;28;20290;-68
2023/01/10 07:04:05;;;;;;;25.03;11.20;;;5.60;99.90;;;;;;4997698;28;20634;-68
2023/01/10 07:06:31;;;;;;;21.97;12.77;;;5.60;99.90;;;;;;4997465;28;20176;-68
2023/01/10 07:08:57;;;;;;;29.50;11.53;;;5.60;99.90;;;;;;4997718;28;20549;-69
2023/01/10 07:11:22;;;;;;;21.97;11.40;;;5.60;99.90;;;;;;5012086;28;20295;-68
2023/01/10 07:13:50;;;;;;;29.43;12.17;;;5.60;99.90;;;;;;4997756;28;20206;-68
2023/01/10 07:16:15;;;;;;;28.43;13.33;;;5.60;99.90;;;;;;4997661;28;20530;-68
2023/01/10 07:18:42;;;;;;;20.77;11.53;;;5.60;99.90;;;;;;4995840;28;20165;-69
2023/01/10 07:21:09;;;;;;;30.47;11.97;;;5.60;99.90;;;;;;4997411;28;20227;-69
2023/01/10 07:23:35;;;;;;;30.87;12.77;;;5.60;99.90;;;;;;4995268;28;20172;-69
2023/01/10 07:26:16;;;;;;;18.30;11.07;;;5.60;99.90;;;;;;4996340;28;20203;-67
2023/01/10 07:28:51;;;;;;;25.30;12.03;;;5.60;99.90;;;;;;4997131;28;20172;-69
2023/01/10 07:31:22;;;;;;;27.70;12.70;;;5.60;99.90;;;;;;4997397;28;20199;-68
2023/01/10 07:33:49;;;;;;;25.73;12.77;;;5.60;99.90;;;;;;5011933;28;20676;-68
2023/01/10 07:36:15;;;;;;;29.13;11.83;;;5.60;99.90;;;;;;4996779;28;20660;-65
2023/01/10 07:38:41;;;;;;;27.03;11.80;;;5.60;99.90;;;;;;4996479;28;20164;-65
2023/01/10 07:41:07;;;;;;;28.90;11.70;;;5.60;99.90;;;;;;4996791;28;20224;-69
2023/01/10 07:43:33;;;;;;;26.37;12.23;;;5.60;99.90;;;;;;4995754;28;20184;-68
2023/01/10 07:46:01;;;;;;;27.73;10.93;;;5.60;99.90;;;;;;4997009;28;20649;-68
2023/01/10 07:48:27;;;;;;;27.37;12.10;;;5.60;99.90;;;;;;4997001;28;20173;-69
2023/01/10 07:50:58;;;;;;;36.80;12.80;;;5.60;99.90;;;;;;4997597;28;20189;-65
2023/01/10 07:53:25;;;;;;;31.10;11.63;;;5.60;99.90;;;;;;4997706;28;20176;-66
2023/01/10 07:55:51;;;;;;;30.17;12.03;;;5.60;99.90;;;;;;5001049;28;20165;-65
2023/01/10 07:58:17;;;;;;;29.23;11.90;;;5.60;99.90;;;;;;5017729;28;20183;-65
2023/01/10 08:00:44;;;;;;;24.27;12.07;;;5.60;99.90;;;;;;4998917;28;20188;-67
2023/01/10 08:03:11;;;;;;;26.13;11.83;;;5.50;99.90;;;;;;4998375;28;20648;-66
2023/01/10 08:05:37;;;;;;;28.20;12.67;;;5.60;99.90;;;;;;4996687;28;20184;-66
2023/01/10 08:08:12;;;;;;;30.00;11.53;;;5.60;99.90;;;;;;4996557;28;20252;-67
2023/01/10 08:10:39;;;;;;;24.27;11.30;;;5.60;99.90;;;;;;4997298;28;20156;-67
2023/01/10 08:13:06;;;;;;;24.20;12.67;;;5.60;99.90;;;;;;4997013;28;20161;-67
2023/01/10 08:15:31;;;;;;;26.17;12.87;;;5.60;99.90;;;;;;5011268;28;20192;-67
2023/01/10 08:18:01;;;;;;;32.23;12.03;;;5.60;99.90;;;;;;4995737;28;20176;-65
2023/01/10 08:20:28;;;;;;;30.47;12.37;;;5.60;99.90;;;;;;4995960;28;20529;-65
2023/01/10 08:22:57;;;;;;;25.40;12.37;;;5.60;99.90;;;;;;4995523;28;20161;-65
2023/01/10 08:25:23;;;;;;;24.37;11.33;;;5.60;99.90;;;;;;4995665;28;20196;-65
2023/01/10 08:27:49;;;;;;;29.77;12.17;;;5.70;99.90;;;;;;4996098;28;20638;-65
2023/01/10 08:30:15;;;;;;;35.80;12.73;;;5.70;99.90;;;;;;5010533;28;20929;-65
2023/01/10 08:32:41;;;;;;;28.43;11.43;;;5.70;99.90;;;;;;4995570;28;20196;-65
2023/01/10 08:35:07;;;;;;;30.77;12.77;;;5.70;99.90;;;;;;4996242;28;20200;-65
2023/01/10 08:37:34;;;;;;;33.03;11.47;;;5.70;99.90;;;;;;4995690;28;20164;-65
2023/01/10 08:40:00;;;;;;;29.23;13.40;;;5.70;99.90;;;;;;4995338;28;20168;-67
2023/01/10 08:42:25;;;;;;;28.20;12.47;;;5.70;99.90;;;;;;4995200;28;20196;-67
2023/01/10 08:44:51;;;;;;;27.47;11.23;;;5.70;99.90;;;;;;4994941;28;20263;-67
2023/01/10 08:47:17;;;;;;;29.37;13.27;;;5.70;99.90;;;;;;4994730;28;20615;-67
2023/01/10 08:49:42;;;;;;;32.43;11.87;;;5.70;99.90;;;;;;4994895;28;20271;-66
2023/01/10 08:52:08;;;;;;;27.13;11.53;;;5.70;99.90;;;;;;4994585;28;20254;-67
2023/01/10 08:54:34;;;;;;;27.27;11.63;;;5.70;99.90;;;;;;4992627;28;20554;-67
2023/01/10 08:57:00;;;;;;;21.43;10.80;;;5.70;99.90;;;;;;5009505;28;20596;-66
2023/01/10 08:59:25;;;;;;;29.57;12.10;;;5.70;99.90;;;;;;4994530;28;20541;-66
2023/01/10 09:01:51;;;;;;;28.80;11.63;;;5.70;99.90;;;;;;4994292;28;20326;-66
2023/01/10 09:04:17;;;;;;;24.97;11.97;;;5.80;99.90;;;;;;4994505;28;20195;-66
2023/01/10 09:06:43;;;;;;;32.60;12.40;;;5.80;99.90;;;;;;4994767;28;20252;-66
2023/01/10 09:09:09;;;;;;;26.23;11.87;;;5.80;99.90;;;;;;4993331;28;20183;-66
2023/01/10 09:11:35;;;;;;;23.63;11.07;;;5.70;99.90;;;;;;4994462;28;20203;-67
2023/01/10 09:14:01;;;;;;;32.67;12.67;;;5.80;99.90;;;;;;4994411;28;20235;-67
2023/01/10 09:16:26;;;;;;;32.27;12.70;;;5.80;99.90;;;;;;4994307;28;20204;-67
2023/01/10 09:18:54;;;;;;;29.53;12.93;;;5.90;99.90;;;;;;4993533;28;20251;-67
2023/01/10 09:21:20;;;;;;;23.93;12.27;;;5.90;99.90;;;;;;4994324;28;20184;-68
2023/01/10 09:23:45;;;;;;;30.87;12.43;;;6.00;99.90;;;;;;4993378;28;20250;-67
2023/01/10 09:26:11;;;;;;;27.93;12.70;;;6.00;99.90;;;;;;4993449;28;20624;-67
2023/01/10 09:28:37;;;;;;;24.37;12.17;;;5.90;99.90;;;;;;5009660;28;20172;-67
2023/01/10 09:31:03;;;;;;;20.93;12.23;;;5.90;99.90;;;;;;5009383;28;20244;-66
2023/01/10 09:33:30;;;;;;;22.27;11.40;;;5.90;99.90;;;;;;5009038;28;20271;-66
2023/01/10 09:35:58;;;;;;;29.47;12.93;;;5.90;99.90;;;;;;4994570;28;20176;-67
2023/01/10 09:38:25;;;;;;;32.00;11.40;;;5.90;99.90;;;;;;4993938;28;20201;-67
2023/01/10 09:41:28;;;;;;;31.47;11.93;;;5.90;99.90;;;;;;4992401;28;20228;-67
2023/01/10 09:44:19;;;;;;;29.17;12.03;;;5.90;99.90;;;;;;4968318;28;1193582;-66
2023/01/10 09:46:47;;;;;;;34.47;12.73;;;5.90;99.90;;;;;;4994710;28;20169;-66
2023/01/10 09:49:38;;;;;;;35.93;12.27;;;5.90;99.90;;;;;;4994772;28;20176;-66
2023/01/10 09:52:19;;;;;;;29.30;12.40;;;5.90;99.90;;;;;;4994631;28;20204;-66
2023/01/10 09:54:47;;;;;;;29.03;10.73;;;5.90;99.90;;;;;;4994611;28;20185;-67
2023/01/10 09:57:16;;;;;;;23.43;11.83;;;6.00;99.90;;;;;;4994397;28;20165;-67
2023/01/10 09:59:44;;;;;;;26.67;10.50;;;6.10;99.90;;;;;;4994856;28;20633;-66
2023/01/10 10:02:30;;;;;;;23.63;11.67;;;6.10;99.90;;;;;;4994187;28;20200;-67
2023/01/10 10:05:10;;;;;;;31.63;11.43;;;6.10;99.90;;;;;;4994263;28;20203;-67
2023/01/10 10:07:36;;;;;;;29.13;10.53;;;6.00;99.90;;;;;;5012908;28;20545;-67
2023/01/10 10:10:04;;;;;;;28.30;10.87;;;6.00;99.90;;;;;;4996690;28;20187;-67
2023/01/10 10:12:45;;;;;;;33.93;12.03;;;6.10;99.90;;;;;;4997781;28;20219;-67
2023/01/10 10:15:13;;;;;;;27.63;10.23;;;6.10;99.90;;;;;;4998097;28;20192;-67
2023/01/10 10:18:21;;;;;;;26.80;10.20;;;6.10;99.90;;;;;;5012858;28;20234;-67
2023/01/10 10:21:06;;;;;;;21.33;10.37;;;6.10;99.90;;;;;;4997994;28;20251;-67
2023/01/10 10:23:41;;;;;;;29.57;10.73;;;6.20;99.90;;;;;;4997922;28;20244;-67
2023/01/10 10:26:16;;;;;;;25.60;9.50;;;6.30;99.90;;;;;;4996252;28;20263;-67
2023/01/10 10:29:07;;;;;;;26.40;10.93;;;6.30;99.90;;;;;;4997799;28;20172;-67
2023/01/10 10:31:54;;;;;;;28.23;10.40;;;6.30;99.90;;;;;;4997382;28;20640;-67
2023/01/10 10:34:35;;;;;;;29.03;11.10;;;6.30;99.90;;;;;;4997578;28;20192;-67
2023/01/10 10:37:19;;;;;;;22.80;9.87;;;6.30;99.90;;;;;;4997935;28;20172;-67
2023/01/10 10:39:51;;;;;;;28.93;9.80;;;6.30;99.90;;;;;;4997718;28;20168;-67
2023/01/10 10:42:18;;;;;;;25.10;9.97;;;6.40;99.90;;;;;;4997144;28;20203;-68
2023/01/10 10:44:53;;;;;;;29.57;10.27;;;6.50;99.90;;;;;;4997373;28;20198;-67
2023/01/10 10:47:26;;;;;;;27.07;9.20;;;6.60;99.90;;;;;;4997442;28;20169;-67
2023/01/10 10:50:13;;;;;;;29.17;8.57;;;6.60;99.90;;;;;;4995999;28;20185;-67
2023/01/10 10:52:41;;;;;;;28.90;9.73;;;6.60;99.90;;;;;;4997156;28;20649;-67
2023/01/10 10:55:14;;;;;;;21.83;9.30;;;6.50;99.90;;;;;;4996959;28;20224;-67
2023/01/10 10:57:41;;;;;;;28.07;10.20;;;6.50;99.90;;;;;;5011962;28;20191;-66
2023/01/10 11:00:13;;;;;;;27.87;10.07;;;6.50;99.90;;;;;;4997158;28;20181;-67
2023/01/10 11:02:46;;;;;;;23.77;9.10;;;6.50;99.90;;;;;;4995828;28;20212;-67
2023/01/10 11:05:27;;;;;;;29.47;9.20;;;6.50;99.90;;;;;;4996906;28;20169;-67
2023/01/10 11:07:59;;;;;;;21.77;8.37;;;6.60;99.90;;;;;;5012128;28;20172;-67
2023/01/10 11:10:35;;;;;;;24.67;8.97;;;6.70;99.90;;;;;;4997523;28;20563;-66
2023/01/10 11:13:36;;;;;;;30.57;10.07;;;6.90;99.90;;;;;;4995639;28;20187;-66
2023/01/10 11:16:04;;;;;;;16.63;7.80;;;7.00;99.90;;;;;;4996880;28;20176;-67
2023/01/10 11:18:31;;;;;;;21.77;8.57;;;7.00;99.90;;;;;;4996500;28;20180;-67
2023/01/10 11:21:13;;;;;;;17.43;7.77;;;7.10;99.90;;;;;;4995367;28;20205;-67
2023/01/10 11:23:55;;;;;;;19.67;7.70;;;6.90;99.90;;;;;;4996970;28;20172;-67
2023/01/10 11:26:24;;;;;;;24.70;8.23;;;6.90;99.90;;;;;;4996712;28;20169;-67
2023/01/10 11:28:52;;;;;;;23.27;8.00;;;6.90;99.90;;;;;;4995288;28;20235;-67
2023/01/10 11:31:28;;;;;;;24.37;8.03;;;6.80;99.90;;;;;;4996376;28;20196;-67
2023/01/10 11:33:55;;;;;;;25.60;9.47;;;6.80;99.90;;;;;;4996432;28;20196;-67
2023/01/10 11:36:21;;;;;;;21.53;8.80;;;6.80;99.90;;;;;;5011499;28;20212;-67
2023/01/10 11:39:00;;;;;;;20.27;8.57;;;6.80;99.90;;;;;;4996109;28;20227;-67
2023/01/10 11:41:30;;;;;;;24.83;8.30;;;6.80;99.90;;;;;;4996184;28;20271;-67
2023/01/10 11:44:25;;;;;;;19.40;7.40;;;6.90;99.90;;;;;;4994783;28;20589;-67
2023/01/10 11:47:00;;;;;;;26.97;8.13;;;6.90;99.90;;;;;;4996635;28;20167;-67
2023/01/10 11:49:31;;;;;;;31.07;8.60;;;6.80;99.90;;;;;;4996759;28;20234;-67
2023/01/10 11:52:04;;;;;;;18.63;7.83;;;6.90;99.90;;;;;;4996951;28;20295;-67
2023/01/10 11:54:33;;;;;;;21.47;8.43;;;7.00;99.90;;;;;;5012073;28;20218;-66
2023/01/10 11:57:30;;;;;;;19.37;9.00;;;6.90;99.90;;;;;;4994971;28;20593;-68
2023/01/10 12:00:04;;;;;;;21.57;7.17;;;6.90;99.90;;;;;;4996145;28;20724;-68
2023/01/10 12:02:40;;;;;;;19.40;7.20;;;7.00;99.90;;;;;;4996464;28;20216;-68
2023/01/10 12:05:12;;;;;;;24.40;7.57;;;7.00;99.90;;;;;;4995229;28;20637;-68
2023/01/10 12:08:00;;;;;;;22.23;8.10;;;7.00;99.90;;;;;;4996817;28;20169;-68
2023/01/10 12:10:27;;;;;;;17.47;7.10;;;7.00;99.90;;;;;;4996746;28;20152;-68
2023/01/10 12:12:59;;;;;;;23.43;8.00;;;6.90;99.90;;;;;;4996274;28;20177;-68
2023/01/10 12:15:28;;;;;;;13.80;7.23;;;7.00;99.90;;;;;;5011376;28;20692;-68
2023/01/10 12:18:01;;;;;;;18.30;7.33;;;7.00;99.90;;;;;;4996309;28;20172;-68
2023/01/10 12:20:33;;;;;;;26.07;7.60;;;7.00;99.90;;;;;;4994789;28;20177;-67
2023/01/10 12:23:06;;;;;;;17.50;6.97;;;7.00;99.90;;;;;;4996182;28;20161;-68
2023/01/10 12:25:41;;;;;;;19.67;7.00;;;7.00;99.90;;;;;;4996045;28;20169;-67
2023/01/10 12:28:28;;;;;;;23.60;8.27;;;7.00;99.90;;;;;;4995860;28;20172;-68
2023/01/10 12:30:57;;;;;;;18.80;7.80;;;7.00;99.90;;;;;;4994877;28;20263;-68
2023/01/10 12:33:31;;;;;;;27.50;7.27;;;7.00;99.90;;;;;;4996435;28;20176;-68
2023/01/10 12:36:15;;;;;;;17.60;6.83;;;7.00;99.90;;;;;;4996145;28;20176;-67
2023/01/10 12:39:05;;;;;;;20.37;8.23;;;7.10;99.90;;;;;;5011328;28;20598;-68
2023/01/10 12:44:40;;;;;;;24.43;6.90;;;7.10;99.90;;;;;;4996096;28;20196;-68
2023/01/10 12:47:18;;;;;;;17.70;6.40;;;7.10;99.90;;;;;;4994569;28;20216;-68
2023/01/10 12:49:54;;;;;;;19.43;7.63;;;7.20;99.90;;;;;;5010880;28;20181;-66
2023/01/10 12:52:47;;;;;;;17.80;5.93;;;7.10;99.90;;;;;;4994251;28;20200;-67
2023/01/10 12:55:21;;;;;;;13.37;6.70;;;7.10;99.90;;;;;;4996067;28;20251;-64
2023/01/10 12:58:00;;;;;;;15.97;6.07;;;7.20;99.90;;;;;;4993993;28;20668;-66
2023/01/10 13:00:46;;;;;;;17.70;6.70;;;7.10;99.90;;;;;;4978864;28;20188;-67
2023/01/10 13:03:25;;;;;;;22.43;7.23;;;7.10;99.90;;;;;;4994664;28;20164;-66
2023/01/10 13:06:03;;;;;;;16.10;6.13;;;7.10;99.90;;;;;;4994758;28;20180;-65
2023/01/10 13:08:32;;;;;;;19.87;6.97;;;7.10;99.90;;;;;;5010874;28;20231;-64
2023/01/10 13:11:00;;;;;;;17.83;5.90;;;7.20;99.90;;;;;;4994785;28;20243;-66
2023/01/10 13:13:25;;;;;;;17.13;6.43;;;7.20;99.90;;;;;;4996352;28;20530;-66